Terminal Aerodrome Forecast
Issued by NWS Wichita, KS

Home | Current Version | Previous Version | Graphics & Text | Print | Product List | Glossary On
Versions: 1 2 3 4 5 6 7 8 9 10 11 12 13 14 15 16 17 18 19 20
688
FTUS43 KICT 201120
TAFICT
TAF
KICT 201120Z 2012/2112 11005KT 1/4SM FG OVC002
     FM201700 14004KT 2SM BR OVC004
     FM201930 18007KT P6SM OVC008
     FM202200 19007KT P6SM BKN015
     FM210100 20007KT P6SM SCT030=

USA.gov is the U.S. government's official web portal to all federal, state and local government web resources and services.